Time;durP1;ratioP1;P1;durP2;ratioP2;P2;SDS_P1;SDS_P2;PMS_P1;PMS_P2;Temp;Humidity;BMP_temperature;BMP_pressure;BME280_temperature;BME280_humidity;BME280_pressure;Samples;Min_cycle;Max_cycle;Signal;HPM_P1;HPM_P2
2021/04/20 00:01:43;;;;;;;11.32;8.48;;;;;;;6.12;69.53;100587.19;5095991;28;20071;-75
2021/04/20 00:04:13;;;;;;;13.70;9.10;;;;;;;6.05;69.57;100593.03;5095008;28;20477;-75
2021/04/20 00:06:39;;;;;;;12.77;9.13;;;;;;;6.04;69.73;100586.63;5094374;28;20051;-76
2021/04/20 00:09:08;;;;;;;13.00;9.68;;;;;;;5.99;70.04;100588.63;5096187;28;20056;-76
2021/04/20 00:11:36;;;;;;;14.80;9.95;;;;;;;5.97;70.30;100591.66;5095428;28;20052;-75
2021/04/20 00:14:04;;;;;;;14.05;9.43;;;;;;;5.99;70.12;100592.19;5095984;28;20052;-76
2021/04/20 00:16:31;;;;;;;12.88;8.95;;;;;;;6.00;69.92;100582.78;5095716;28;20048;-76
2021/04/20 00:19:00;;;;;;;12.73;8.93;;;;;;;6.00;69.86;100587.50;5095965;28;20393;-76
2021/04/20 00:21:28;;;;;;;13.55;9.52;;;;;;;5.98;69.78;100584.19;5095362;28;20359;-76
2021/04/20 00:23:55;;;;;;;12.63;9.30;;;;;;;5.94;69.57;100580.28;5094413;28;20073;-76
2021/04/20 00:26:21;;;;;;;13.45;9.50;;;;;;;5.94;69.93;100578.34;5095932;28;20056;-76
2021/04/20 00:28:48;;;;;;;13.65;9.25;;;;;;;5.93;69.75;100576.69;5095302;28;20048;-75
2021/04/20 00:31:15;;;;;;;12.80;8.75;;;;;;;5.93;69.69;100576.69;5092759;28;20056;-76
2021/04/20 00:33:42;;;;;;;12.05;9.07;;;;;;;5.92;69.65;100580.56;5092665;28;20343;-76
2021/04/20 00:36:10;;;;;;;12.32;9.10;;;;;;;5.90;69.84;100569.81;5094999;28;20059;-76
2021/04/20 00:38:38;;;;;;;13.63;8.63;;;;;;;5.87;69.64;100573.13;5095125;28;20048;-76
2021/04/20 00:41:05;;;;;;;12.98;9.07;;;;;;;5.86;69.49;100576.19;5095523;28;20052;-76
2021/04/20 00:43:34;;;;;;;12.52;9.15;;;;;;;5.85;69.42;100568.97;5094267;28;20393;-76
2021/04/20 00:46:01;;;;;;;11.77;8.68;;;;;;;5.83;69.46;100563.72;5094593;28;20051;-76
2021/04/20 00:48:28;;;;;;;12.88;8.60;;;;;;;5.81;69.47;100562.34;5094590;28;20056;-76
2021/04/20 00:50:55;;;;;;;12.18;8.73;;;;;;;5.79;69.39;100559.03;5094366;28;20052;-76
2021/04/20 00:53:22;;;;;;;11.32;8.65;;;;;;;5.76;69.30;100551.31;5094422;28;20066;-76
2021/04/20 00:55:50;;;;;;;13.88;9.77;;;;;;;5.74;69.48;100556.31;5095155;28;20048;-76
2021/04/20 00:58:16;;;;;;;13.75;9.60;;;;;;;5.74;69.34;100559.06;5093524;28;20486;-76
2021/04/20 01:00:43;;;;;;;13.18;9.20;;;;;;;5.73;69.37;100555.47;5094610;28;20063;-75
2021/04/20 01:03:11;;;;;;;12.38;9.20;;;;;;;5.68;69.53;100555.47;5093351;28;20555;-75
2021/04/20 01:05:39;;;;;;;12.57;9.20;;;;;;;5.67;69.75;100556.59;5094250;28;20048;-75
2021/04/20 01:08:07;;;;;;;13.45;9.50;;;;;;;5.65;69.48;100554.09;5093866;28;20048;-75
2021/04/20 01:10:36;;;;;;;12.23;9.05;;;;;;;5.62;69.65;100549.13;5095329;28;20048;-75
2021/04/20 01:13:05;;;;;;;14.00;10.32;;;;;;;5.58;69.76;100553.56;5094535;28;20058;-75
2021/04/20 01:15:32;;;;;;;13.10;8.95;;;;;;;5.54;69.90;100552.44;5095653;28;20055;-75
2021/04/20 01:18:09;;;;;;;14.05;9.43;;;;;;;5.53;70.05;100556.34;5094917;28;20059;-75
2021/04/20 01:20:37;;;;;;;13.90;8.73;;;;;;;5.50;69.99;100554.13;5095098;28;20052;-75
2021/04/20 01:23:08;;;;;;;15.77;9.43;;;;;;;5.50;70.12;100545.84;5094097;28;20048;-75
2021/04/20 01:25:36;;;;;;;11.75;9.07;;;;;;;5.49;69.78;100555.25;5093145;28;20052;-75
2021/04/20 01:28:06;;;;;;;12.40;8.90;;;;;;;5.48;70.02;100548.03;5093963;28;20059;-75
2021/04/20 01:30:34;;;;;;;13.73;9.55;;;;;;;5.47;70.46;100557.44;5091824;28;20078;-75
2021/04/20 01:33:04;;;;;;;13.40;10.02;;;;;;;5.46;70.23;100550.28;5093249;28;20066;-75
2021/04/20 01:35:33;;;;;;;14.68;10.00;;;;;;;5.46;70.20;100550.28;5093532;28;20044;-75
2021/04/20 01:38:02;;;;;;;14.15;9.93;;;;;;;5.43;70.31;100553.59;5094365;28;20052;-75
2021/04/20 01:40:30;;;;;;;16.83;11.18;;;;;;;5.41;69.93;100553.03;5093945;28;20053;-75
2021/04/20 01:43:01;;;;;;;14.75;10.50;;;;;;;5.38;70.07;100559.13;5093659;28;20047;-75
2021/04/20 01:45:29;;;;;;;15.68;10.10;;;;;;;5.38;69.78;100545.31;5093441;28;20062;-75
2021/04/20 01:47:57;;;;;;;13.80;10.27;;;;;;;5.37;70.21;100547.22;5094178;28;20052;-75
2021/04/20 01:50:24;;;;;;;14.45;9.88;;;;;;;5.35;70.12;100541.16;5089311;28;20056;-76
2021/04/20 01:52:52;;;;;;;14.32;9.52;;;;;;;5.35;70.06;100543.09;5092651;28;20060;-76
2021/04/20 01:55:19;;;;;;;17.05;9.88;;;;;;;5.35;70.45;100548.63;5094191;28;20055;-75
2021/04/20 01:57:51;;;;;;;14.90;10.50;;;;;;;5.39;70.28;100544.19;5092426;28;20511;-75
2021/04/20 02:00:21;;;;;;;14.00;9.98;;;;;;;5.41;70.74;100545.56;5093862;28;20051;-75
2021/04/20 02:02:48;;;;;;;14.48;9.88;;;;;;;5.41;70.70;100542.00;5093679;28;20052;-75
2021/04/20 02:05:16;;;;;;;13.07;9.40;;;;;;;5.40;70.95;100551.41;5092581;28;20052;-75
2021/04/20 02:07:43;;;;;;;15.45;10.07;;;;;;;5.44;70.62;100552.50;5093204;28;20044;-75
2021/04/20 02:10:13;;;;;;;13.25;9.93;;;;;;;5.46;71.10;100544.75;5094033;28;20055;-75
2021/04/20 02:12:40;;;;;;;13.80;9.65;;;;;;;5.51;70.83;100553.03;5098318;28;20515;-75
2021/04/20 02:15:09;;;;;;;15.02;8.85;;;;;;;5.59;71.00;100541.41;5097478;28;20047;-74
2021/04/20 02:17:37;;;;;;;13.25;8.82;;;;;;;5.69;70.79;100546.91;5093801;28;20048;-75
2021/04/20 02:20:06;;;;;;;11.75;8.90;;;;;;;5.78;70.53;100551.88;5093319;28;20516;-75
2021/04/20 02:22:35;;;;;;;12.02;8.95;;;;;;;5.88;70.13;100549.09;5093293;28;20048;-75
2021/04/20 02:25:05;;;;;;;12.20;9.07;;;;;;;5.94;70.13;100550.69;5092298;28;20044;-75
2021/04/20 02:27:34;;;;;;;15.65;8.98;;;;;;;6.02;69.52;100552.09;5092631;28;20390;-75
2021/04/20 02:30:01;;;;;;;12.33;8.87;;;;;;;6.05;69.17;100549.59;5090006;28;20586;-75
2021/04/20 02:32:28;;;;;;;12.73;9.15;;;;;;;6.12;68.96;100546.53;5093524;28;20482;-75
2021/04/20 02:34:59;;;;;;;11.32;8.50;;;;;;;6.18;68.90;100544.59;5092346;28;20386;-75
2021/04/20 02:37:27;;;;;;;13.60;8.90;;;;;;;6.16;69.04;100542.09;5092475;28;20484;-75
2021/04/20 02:39:54;;;;;;;13.05;9.88;;;;;;;6.16;69.23;100547.63;5090386;28;20047;-76
2021/04/20 02:42:23;;;;;;;14.15;9.52;;;;;;;6.19;69.03;100546.22;5093507;28;20056;-75
2021/04/20 02:44:50;;;;;;;13.75;10.20;;;;;;;6.23;69.31;100544.53;5092431;28;20579;-75
2021/04/20 02:47:17;;;;;;;14.25;9.40;;;;;;;6.26;69.39;100535.69;5089963;28;20055;-75
2021/04/20 02:49:44;;;;;;;13.95;9.43;;;;;;;6.26;69.50;100541.22;5092249;28;20052;-75
2021/04/20 02:52:16;;;;;;;14.13;10.27;;;;;;;6.33;69.01;100532.63;5092211;28;20413;-75
2021/04/20 02:54:44;;;;;;;14.27;10.15;;;;;;;6.33;69.44;100533.44;5092781;28;20053;-75
2021/04/20 02:57:12;;;;;;;15.25;10.75;;;;;;;6.31;69.55;100527.34;5092574;28;20056;-75
2021/04/20 02:59:39;;;;;;;15.30;11.57;;;;;;;6.31;69.33;100524.59;5092752;28;20056;-75
2021/04/20 03:02:06;;;;;;;13.55;10.27;;;;;;;6.29;69.91;100533.16;5092340;28;20059;-75
2021/04/20 03:04:34;;;;;;;14.20;10.10;;;;;;;6.30;70.07;100525.72;5091740;28;20473;-75
2021/04/20 03:07:01;;;;;;;16.95;11.63;;;;;;;6.30;69.88;100523.78;5093702;28;20048;-75
2021/04/20 03:09:29;;;;;;;15.05;10.80;;;;;;;6.22;69.93;100526.31;5092757;28;20051;-75
2021/04/20 03:11:58;;;;;;;14.90;10.85;;;;;;;6.16;69.97;100528.25;5092103;28;20416;-75
2021/04/20 03:14:27;;;;;;;15.18;10.52;;;;;;;6.18;69.81;100520.50;5092489;28;20225;-75
2021/04/20 03:16:54;;;;;;;14.18;10.00;;;;;;;6.20;70.05;100528.53;5091369;28;20485;-75
2021/04/20 03:19:21;;;;;;;15.50;10.60;;;;;;;6.13;69.80;100526.03;5093278;28;20056;-76
2021/04/20 03:21:50;;;;;;;15.63;9.90;;;;;;;6.09;69.96;100520.28;5091606;28;20048;-75
2021/04/20 03:24:48;;;;;;;13.85;9.73;;;;;;;6.10;69.66;100521.09;5080837;28;20040;-75
2021/04/20 03:27:16;;;;;;;14.20;9.40;;;;;;;6.07;69.27;100532.75;5089190;28;20056;-75
2021/04/20 03:29:42;;;;;;;14.85;10.32;;;;;;;6.05;69.10;100521.13;5092005;28;20051;-75
2021/04/20 03:32:11;;;;;;;14.63;9.82;;;;;;;5.96;69.48;100520.88;5090378;28;20489;-76
2021/04/20 03:34:51;;;;;;;13.70;10.43;;;;;;;5.93;69.37;100526.94;5092074;28;20048;-75
2021/04/20 03:37:24;;;;;;;17.02;11.10;;;;;;;5.87;69.52;100525.31;5092995;28;20052;-75
2021/04/20 03:39:55;;;;;;;16.40;10.80;;;;;;;5.83;69.39;100526.97;5091104;28;20063;-75
2021/04/20 03:42:27;;;;;;;17.88;11.05;;;;;;;5.74;69.57;100515.66;5091845;28;20056;-75
2021/04/20 03:44:58;;;;;;;20.67;12.35;;;;;;;5.70;69.98;100509.88;5092105;28;20052;-75
2021/04/20 03:47:29;;;;;;;18.33;11.68;;;;;;;5.64;70.13;100516.50;5092700;28;20055;-75
2021/04/20 03:49:58;;;;;;;15.05;11.10;;;;;;;5.59;70.35;100513.78;5091969;28;20071;-75
2021/04/20 03:52:30;;;;;;;19.13;12.05;;;;;;;5.53;70.74;100523.19;5091874;28;20508;-75
2021/04/20 03:54:58;;;;;;;17.70;12.35;;;;;;;5.47;71.27;100514.06;5090922;28;20048;-75
2021/04/20 03:57:28;;;;;;;18.42;12.20;;;;;;;5.42;71.20;100525.16;5090424;28;20052;-75
2021/04/20 03:59:58;;;;;;;17.65;12.60;;;;;;;5.40;71.30;100509.97;5085542;28;20405;-75
2021/04/20 04:02:26;;;;;;;19.52;13.63;;;;;;;5.36;71.03;100511.63;5087959;28;20055;-75
2021/04/20 04:04:53;;;;;;;21.98;13.88;;;;;;;5.32;71.17;100516.88;5091214;28;20043;-75
2021/04/20 04:07:23;;;;;;;18.55;11.80;;;;;;;5.34;71.10;100513.84;5096194;28;20417;-75
2021/04/20 04:09:52;;;;;;;18.92;12.15;;;;;;;5.34;71.09;100508.31;5094953;28;20051;-75
2021/04/20 04:12:20;;;;;;;24.85;14.00;;;;;;;5.28;71.48;100513.81;5095510;28;20070;-75
2021/04/20 04:14:48;;;;;;;20.08;13.25;;;;;;;5.27;71.41;100505.81;5094353;28;20067;-75
2021/04/20 04:17:21;;;;;;;18.90;12.35;;;;;;;5.26;71.14;100507.75;5093202;28;20060;-75
2021/04/20 04:19:53;;;;;;;21.45;12.13;;;;;;;5.27;71.14;100514.94;5087112;28;20052;-75
2021/04/20 04:22:24;;;;;;;18.85;12.35;;;;;;;5.21;70.57;100510.53;5095871;28;20052;-75
2021/04/20 04:24:57;;;;;;;21.48;13.55;;;;;;;5.19;70.67;100514.69;5094644;28;20064;-75
2021/04/20 04:27:27;;;;;;;19.92;13.25;;;;;;;5.13;70.95;100507.50;5096155;28;20059;-75
2021/04/20 04:30:00;;;;;;;20.77;13.23;;;;;;;5.09;71.41;100513.56;5093909;28;20058;-75
2021/04/20 04:32:29;;;;;;;19.38;12.45;;;;;;;5.13;71.42;100510.28;5089341;28;20052;-76
2021/04/20 04:34:58;;;;;;;21.40;12.73;;;;;;;5.12;71.03;100508.59;5089648;28;20048;-75
2021/04/20 04:37:25;;;;;;;20.73;13.45;;;;;;;5.09;70.80;100505.28;5093757;28;20056;-75
2021/04/20 04:39:52;;;;;;;19.42;13.23;;;;;;;5.07;71.12;100503.91;5089441;28;20055;-76
2021/04/20 04:42:19;;;;;;;20.50;13.60;;;;;;;5.07;71.08;100510.25;5090770;28;20043;-75
2021/04/20 04:44:48;;;;;;;19.58;12.73;;;;;;;5.09;70.88;100505.28;5093001;28;20052;-75
2021/04/20 04:47:17;;;;;;;20.88;12.77;;;;;;;5.08;71.45;100500.03;5085254;28;20504;-74
2021/04/20 04:49:46;;;;;;;18.48;12.30;;;;;;;5.12;71.54;100506.66;5087803;28;20093;-74
2021/04/20 04:52:13;;;;;;;20.77;13.25;;;;;;;5.14;71.25;100507.22;5086705;28;20051;-74
2021/04/20 04:54:42;;;;;;;22.77;13.38;;;;;;;5.17;71.31;100514.94;5088849;28;20056;-74
2021/04/20 04:57:12;;;;;;;20.42;13.15;;;;;;;5.21;70.92;100518.00;5087147;28;20044;-75
2021/04/20 04:59:41;;;;;;;21.33;14.15;;;;;;;5.23;70.86;100513.84;5088282;28;20060;-75
2021/04/20 05:02:11;;;;;;;21.67;14.27;;;;;;;5.32;71.22;100518.81;5088085;28;20386;-74
2021/04/20 05:04:39;;;;;;;22.52;14.43;;;;;;;5.37;71.41;100513.25;5089923;28;20405;-75
2021/04/20 05:07:06;;;;;;;21.33;14.05;;;;;;;5.44;70.89;100514.66;5094018;28;20052;-75
2021/04/20 05:09:36;;;;;;;19.42;13.25;;;;;;;5.47;71.26;100516.84;5086602;28;20055;-75
2021/04/20 05:12:05;;;;;;;20.45;14.02;;;;;;;5.47;70.76;100514.06;5091851;28;20060;-75
2021/04/20 05:14:31;;;;;;;20.90;13.75;;;;;;;5.54;70.52;100510.19;5091464;28;20955;-75
2021/04/20 05:16:59;;;;;;;21.75;12.80;;;;;;;5.66;70.57;100517.06;5084764;28;20504;-75
2021/04/20 05:19:29;;;;;;;18.50;12.20;;;;;;;5.74;70.36;100512.09;5083193;28;20044;-75
2021/04/20 05:21:58;;;;;;;17.15;12.18;;;;;;;5.78;70.60;100514.00;5088076;28;20055;-75
2021/04/20 05:24:26;;;;;;;15.57;10.82;;;;;;;5.85;71.63;100511.75;5086811;28;20047;-75
2021/04/20 05:26:53;;;;;;;14.80;9.98;;;;;;;6.01;71.38;100509.81;5090668;28;20059;-75
2021/04/20 05:29:20;;;;;;;17.50;10.95;;;;;;;6.15;70.98;100514.72;5091074;28;20044;-75
2021/04/20 05:31:46;;;;;;;14.63;10.20;;;;;;;6.32;70.14;100517.09;5088402;28;20063;-75
2021/04/20 05:34:14;;;;;;;13.65;10.65;;;;;;;6.47;69.19;100520.63;5081006;28;20055;-75
2021/04/20 05:36:41;;;;;;;16.25;11.07;;;;;;;6.61;68.28;100523.56;5094324;28;20055;-75
2021/04/20 05:39:11;;;;;;;13.75;11.00;;;;;;;6.77;67.67;100518.78;5094582;28;20059;-75
2021/04/20 05:41:40;;;;;;;14.93;10.73;;;;;;;6.91;67.26;100513.41;5094378;28;20052;-76
2021/04/20 05:44:12;;;;;;;14.88;11.15;;;;;;;7.04;67.40;100515.50;5094816;28;20078;-75
2021/04/20 05:46:40;;;;;;;14.32;11.00;;;;;;;7.15;66.73;100513.47;5094840;28;20489;-75
2021/04/20 05:49:08;;;;;;;14.13;10.85;;;;;;;7.30;66.51;100521.66;5090924;28;20048;-76
2021/04/20 05:51:37;;;;;;;14.38;10.68;;;;;;;7.44;66.47;100516.25;5076903;28;20063;-76
2021/04/20 05:54:04;;;;;;;15.98;10.38;;;;;;;7.63;66.25;100523.84;5085365;28;20477;-76
2021/04/20 05:56:32;;;;;;;12.55;10.32;;;;;;;7.81;65.72;100516.69;5094393;28;20485;-75
2021/04/20 05:59:02;;;;;;;15.52;11.15;;;;;;;8.05;65.14;100520.28;5094298;28;20056;-76
2021/04/20 06:01:30;;;;;;;15.15;11.32;;;;;;;8.26;64.73;100523.63;5092945;28;20048;-76
2021/04/20 06:03:57;;;;;;;16.52;12.15;;;;;;;8.49;63.84;100523.91;5093807;28;20052;-75
2021/04/20 06:06:25;;;;;;;16.02;12.10;;;;;;;8.69;63.22;100520.00;5085529;28;20053;-82
2021/04/20 06:08:54;;;;;;;18.23;11.27;;;;;;;8.87;63.61;100519.19;5081850;28;20060;-75
2021/04/20 06:11:22;;;;;;;18.00;12.30;;;;;;;9.02;63.15;100514.50;5088611;28;20067;-74
2021/04/20 06:13:53;;;;;;;15.70;11.43;;;;;;;9.20;62.37;100518.34;5089956;28;20383;-75
2021/04/20 06:16:20;;;;;;;17.98;11.70;;;;;;;9.31;61.67;100523.44;5088000;28;20044;-78
2021/04/20 06:18:47;;;;;;;13.70;9.95;;;;;;;9.43;61.66;100519.34;5085988;28;20044;-77
2021/04/20 06:21:17;;;;;;;13.52;9.63;;;;;;;9.55;62.12;100525.25;5090209;28;20048;-77
2021/04/20 06:23:45;;;;;;;14.88;11.02;;;;;;;9.69;61.41;100531.66;5089556;28;20052;-77
2021/04/20 06:26:13;;;;;;;15.93;11.20;;;;;;;9.80;61.00;100521.16;5085622;28;20547;-77
2021/04/20 06:28:40;;;;;;;16.30;12.45;;;;;;;9.86;60.87;100533.03;5093842;28;20055;-77
2021/04/20 06:31:08;;;;;;;16.55;12.18;;;;;;;9.95;60.56;100529.22;5094848;28;20052;-76
2021/04/20 06:33:37;;;;;;;17.13;11.65;;;;;;;9.99;60.66;100526.63;5093922;28;20059;-76
2021/04/20 06:36:07;;;;;;;16.70;12.10;;;;;;;10.07;60.48;100527.88;5083828;28;20040;-76
2021/04/20 06:38:37;;;;;;;16.00;12.80;;;;;;;10.13;60.21;100533.03;5093179;28;20482;-74
2021/04/20 06:41:07;;;;;;;22.48;13.38;;;;;;;10.19;59.82;100536.53;5082328;28;20052;-75
2021/04/20 06:43:45;;;;;;;17.15;12.63;;;;;;;10.26;59.18;100531.34;5089004;28;20047;-75
2021/04/20 06:46:19;;;;;;;21.30;13.02;;;;;;;10.32;59.22;100529.31;5092851;28;20087;-75
2021/04/20 06:48:50;;;;;;;16.13;12.07;;;;;;;10.43;58.75;100527.97;5095715;28;20051;-76
2021/04/20 06:51:19;;;;;;;17.63;12.88;;;;;;;10.53;58.37;100524.94;5090041;28;20548;-76
2021/04/20 06:53:50;;;;;;;17.35;12.70;;;;;;;10.67;58.32;100524.13;5087525;28;20063;-76
2021/04/20 06:56:33;;;;;;;14.77;11.73;;;;;;;10.72;57.98;100530.38;5089852;28;20048;-75
2021/04/20 06:59:09;;;;;;;18.15;12.45;;;;;;;10.85;57.84;100519.50;5095979;28;20047;-76
2021/04/20 07:01:41;;;;;;;14.43;11.77;;;;;;;10.99;57.60;100519.47;5082819;28;20508;-75
2021/04/20 07:04:25;;;;;;;15.85;12.52;;;;;;;11.08;57.26;100515.56;5077731;28;20382;-75
2021/04/20 07:07:15;;;;;;;18.40;12.90;;;;;;;11.21;57.03;100515.81;5083781;28;20485;-75
2021/04/20 07:09:45;;;;;;;;;;;;;;;11.38;57.30;100510.34;5093262;28;20477;-76
2021/04/20 07:12:15;;;;;;;16.75;12.30;;;;;;;11.51;57.27;100497.50;5090991;28;19920;-75
2021/04/20 07:14:47;;;;;;;18.17;13.45;;;;;;;11.59;57.00;100499.50;5076201;28;20055;-75
2021/04/20 07:17:34;;;;;;;17.85;14.00;;;;;;;11.84;58.18;100497.94;5081696;28;20045;-74
2021/04/20 07:20:21;;;;;;;16.92;13.45;;;;;;;12.10;57.19;100503.66;5073190;28;20060;-74
2021/04/20 07:23:08;;;;;;;17.15;13.07;;;;;;;12.61;55.05;100504.09;5075021;28;20061;-73
2021/04/20 07:25:54;;;;;;;15.57;12.85;;;;;;;13.63;52.83;100493.44;5087921;28;20052;-74
2021/04/20 07:28:30;;;;;;;15.80;12.90;;;;;;;14.86;49.56;100498.03;5080803;28;20048;-74
2021/04/20 07:31:08;;;;;;;21.40;11.75;;;;;;;16.12;46.51;100486.41;5081955;28;20060;-75
2021/04/20 07:33:54;;;;;;;14.35;11.40;;;;;;;17.24;43.21;100485.81;5091987;28;20063;-79
2021/04/20 07:36:29;;;;;;;17.80;12.00;;;;;;;18.20;40.55;100486.69;5086235;28;20048;-78
2021/04/20 07:38:58;;;;;;;11.70;10.50;;;;;;;19.20;39.04;100488.13;5073112;28;20063;-76
2021/04/20 07:41:32;;;;;;;18.08;11.65;;;;;;;20.11;36.90;100485.72;5084730;28;20052;-75
2021/04/20 07:44:10;;;;;;;12.13;10.35;;;;;;;20.96;35.60;100474.06;5085729;28;20078;-76
2021/04/20 07:46:42;;;;;;;13.20;10.43;;;;;;;21.79;33.68;100474.97;5095841;28;20484;-73
2021/04/20 07:49:29;;;;;;;12.82;10.73;;;;;;;22.60;32.02;100473.19;5075635;28;20067;-74
2021/04/20 07:52:02;;;;;;;13.93;10.93;;;;;;;23.27;30.71;100483.25;5076379;28;20056;-75
2021/04/20 07:54:44;;;;;;;12.73;10.68;;;;;;;24.00;30.01;100474.44;5075549;28;20067;-75
2021/04/20 07:57:17;;;;;;;12.45;11.13;;;;;;;24.79;28.69;100473.50;5084038;28;20048;-74
2021/04/20 07:59:56;;;;;;;12.13;10.85;;;;;;;25.40;26.94;100471.22;5092855;28;20517;-73
2021/04/20 08:02:31;;;;;;;10.97;9.87;;;;;;;26.16;26.74;100459.25;5086904;28;20059;-74
2021/04/20 08:05:07;;;;;;;12.50;11.13;;;;;;;26.73;25.09;100459.50;5094806;28;20478;-77
2021/04/20 08:07:50;;;;;;;12.93;10.90;;;;;;;27.35;24.02;100459.56;5095199;28;20067;-77
2021/04/20 08:10:18;;;;;;;12.07;10.85;;;;;;;27.87;23.77;100462.06;5094274;28;20055;-77
2021/04/20 08:12:52;;;;;;;12.07;10.88;;;;;;;28.46;23.03;100459.81;5094844;28;20056;-76
2021/04/20 08:15:27;;;;;;;12.10;10.20;;;;;;;29.07;21.97;100458.59;5075635;28;20052;-75
2021/04/20 08:18:01;;;;;;;11.07;9.98;;;;;;;29.31;21.68;100451.50;5081485;28;20051;-74
2021/04/20 08:20:30;;;;;;;11.52;10.38;;;;;;;30.00;20.04;100450.72;5094208;28;20055;-74
2021/04/20 08:22:59;;;;;;;11.52;10.32;;;;;;;30.34;19.79;100447.41;5090138;28;20052;-73
2021/04/20 08:25:30;;;;;;;11.55;10.45;;;;;;;30.60;19.17;100452.47;5093264;28;20048;-76
2021/04/20 08:28:06;;;;;;;11.85;10.75;;;;;;;31.14;17.81;100446.78;5094611;28;20052;-75
2021/04/20 08:30:43;;;;;;;11.32;10.23;;;;;;;31.79;17.72;100441.06;5087903;28;20074;-74
2021/04/20 08:33:17;;;;;;;10.95;9.85;;;;;;;32.43;17.26;100441.72;5074409;28;20048;-74
2021/04/20 08:35:49;;;;;;;11.43;10.43;;;;;;;33.05;16.14;100441.09;5076273;28;20060;-76
2021/04/20 08:38:35;;;;;;;11.35;10.20;;;;;;;33.70;15.81;100438.56;5093048;28;20051;-76
2021/04/20 08:41:08;;;;;;;10.90;9.90;;;;;;;34.36;14.93;100433.28;5073769;28;20056;-76
2021/04/20 08:43:47;;;;;;;10.57;9.57;;;;;;;34.78;13.67;100439.72;5074226;28;20053;-75
2021/04/20 08:46:28;;;;;;;10.05;9.15;;;;;;;35.73;13.59;100439.31;5085759;28;20055;-76
2021/04/20 08:49:01;;;;;;;10.38;9.38;;;;;;;36.34;12.25;100436.19;5074527;28;20052;-76
2021/04/20 08:51:36;;;;;;;11.55;10.45;;;;;;;36.87;11.45;100431.72;5072646;28;20067;-76
2021/04/20 08:54:26;;;;;;;10.85;9.95;;;;;;;37.27;10.86;100429.53;5074112;28;20350;-74
2021/04/20 08:57:02;;;;;;;10.20;9.32;;;;;;;37.88;10.74;100432.63;5073599;28;20068;-74
2021/04/20 09:00:04;;;;;;;10.93;9.93;;;;;;;38.91;10.68;100426.78;5074254;28;20056;-74
2021/04/20 09:02:45;;;;;;;11.02;10.13;;;;;;;39.14;9.48;100422.81;5092580;28;20059;-75
2021/04/20 09:05:22;;;;;;;11.75;10.75;;;;;;;39.53;9.62;100427.38;5093812;28;20047;-75
2021/04/20 09:07:59;;;;;;;11.47;10.47;;;;;;;39.91;9.56;100428.97;5093962;28;20420;-75
2021/04/20 09:10:34;;;;;;;11.07;10.07;;;;;;;40.49;9.13;100425.00;5092862;28;20055;-76
2021/04/20 09:13:07;;;;;;;11.85;10.85;;;;;;;40.76;8.81;100421.41;5093620;28;20417;-76
2021/04/20 09:15:39;;;;;;;11.73;10.63;;;;;;;41.17;9.16;100420.16;5090126;28;20421;-76
2021/04/20 09:18:10;;;;;;;13.52;12.35;;;;;;;41.62;8.35;100423.06;5074055;28;20056;-77
2021/04/20 09:20:43;;;;;;;12.25;11.25;;;;;;;41.84;8.56;100421.44;5079635;28;20071;-76
2021/04/20 09:23:22;;;;;;;13.25;12.15;;;;;;;42.02;7.78;100428.84;5094038;28;20397;-76
2021/04/20 09:25:54;;;;;;;12.75;11.65;;;;;;;42.45;8.17;100428.44;5076129;28;20048;-77
2021/04/20 09:28:29;;;;;;;13.07;11.98;;;;;;;42.67;7.89;100419.50;5086624;28;20054;-76
2021/04/20 09:31:04;;;;;;;12.68;11.63;;;;;;;43.08;7.93;100427.50;5088887;28;20044;-76
2021/04/20 09:33:38;;;;;;;13.02;11.95;;;;;;;43.18;7.72;100419.97;5092965;28;20119;-76
2021/04/20 09:36:08;;;;;;;12.30;11.30;;;;;;;43.67;7.01;100427.31;5093170;28;20497;-77
2021/04/20 09:38:38;;;;;;;13.55;12.45;;;;;;;43.93;7.06;100424.63;5093749;28;20397;-76
2021/04/20 09:41:08;;;;;;;12.65;11.60;;;;;;;44.22;7.31;100413.34;5092452;28;20048;-76
2021/04/20 09:43:46;;;;;;;12.48;11.45;;;;;;;44.46;6.60;100418.41;5093302;28;20052;-76
2021/04/20 09:46:21;;;;;;;13.00;11.88;;;;;;;44.44;6.27;100415.19;5081177;28;20056;-77
2021/04/20 09:48:58;;;;;;;12.70;11.60;;;;;;;44.62;6.64;100416.56;5087828;28;20464;-76
2021/04/20 09:51:30;;;;;;;12.88;11.57;;;;;;;44.61;7.04;100420.06;5092601;28;20437;-75
2021/04/20 09:54:04;;;;;;;13.05;11.93;;;;;;;45.24;6.13;100406.81;5092950;28;20063;-76
2021/04/20 09:56:36;;;;;;;12.55;11.55;;;;;;;45.42;6.02;100413.97;5086224;28;20048;-76
2021/04/20 09:59:09;;;;;;;12.93;11.90;;;;;;;45.45;6.11;100412.84;5093078;28;20059;-76
2021/04/20 10:01:48;;;;;;;14.98;13.70;;;;;;;45.77;5.53;100406.13;5080806;28;20063;-76
2021/04/20 10:04:25;;;;;;;13.13;12.02;;;;;;;45.55;5.69;100414.00;5073479;28;20052;-78
2021/04/20 10:07:09;;;;;;;13.90;12.80;;;;;;;45.09;6.51;100410.25;5074003;28;20504;-75
2021/04/20 10:09:47;;;;;;;12.73;11.63;;;;;;;45.53;6.13;100410.84;5073180;28;20053;-76
2021/04/20 10:12:23;;;;;;;;;;;;;;;45.27;6.50;100410.78;5081545;28;20056;-75
2021/04/20 10:14:59;;;;;;;12.98;11.95;;;;;;;46.41;5.17;100410.19;5089221;28;19927;-74
2021/04/20 10:17:37;;;;;;;12.37;11.37;;;;;;;46.50;5.82;100410.50;5091350;28;20052;-73
2021/04/20 10:20:18;;;;;;;13.07;12.07;;;;;;;46.68;6.06;100405.00;5091920;28;20063;-73
2021/04/20 10:22:52;;;;;;;13.25;12.13;;;;;;;47.22;4.81;100406.41;5092603;28;20055;-73
2021/04/20 10:25:28;;;;;;;11.75;10.75;;;;;;;47.09;4.69;100404.28;5087436;28;20405;-74
2021/04/20 10:28:10;;;;;;;11.23;10.32;;;;;;;46.72;5.17;100409.19;5072214;28;20048;-73
2021/04/20 10:30:41;;;;;;;12.10;11.00;;;;;;;47.65;4.60;100395.34;5079218;28;20612;-73
2021/04/20 10:33:12;;;;;;;12.68;11.65;;;;;;;48.02;4.50;100393.25;5072296;28;20055;-73
2021/04/20 10:35:41;;;;;;;11.52;10.52;;;;;;;47.79;5.35;100399.78;5073189;28;20071;-73
2021/04/20 10:38:13;;;;;;;10.90;10.10;;;;;;;47.82;4.73;100395.69;5092410;28;20048;-73
2021/04/20 10:40:44;;;;;;;11.93;10.93;;;;;;;47.76;4.68;100386.19;5091031;28;20118;-73
2021/04/20 10:43:13;;;;;;;11.95;10.95;;;;;;;47.64;4.96;100385.72;5092546;28;20052;-73
2021/04/20 10:45:41;;;;;;;13.80;12.60;;;;;;;48.08;4.53;100379.88;5084832;28;20481;-73
2021/04/20 10:48:13;;;;;;;12.43;11.32;;;;;;;48.14;4.84;100376.78;5072029;28;20048;-73
2021/04/20 10:50:42;;;;;;;11.73;10.73;;;;;;;45.17;5.87;100380.94;5080253;28;20049;-73
2021/04/20 10:53:13;;;;;;;10.98;10.07;;;;;;;42.11;8.15;100379.59;5074065;28;20883;-73
2021/04/20 10:55:47;;;;;;;12.35;11.20;;;;;;;44.11;6.74;100366.50;5084797;28;20048;-73
2021/04/20 10:58:23;;;;;;;9.60;8.70;;;;;;;41.60;7.42;100376.00;5080634;28;20052;-73
2021/04/20 11:00:52;;;;;;;10.77;9.55;;;;;;;39.41;9.10;100370.31;5085575;28;20044;-76
2021/04/20 11:03:22;;;;;;;10.02;9.13;;;;;;;41.12;8.50;100366.19;5092306;28;20052;-73
2021/04/20 11:05:49;;;;;;;10.00;9.10;;;;;;;42.66;7.31;100367.34;5091855;28;20382;-73
2021/04/20 11:08:23;;;;;;;9.67;8.87;;;;;;;43.11;7.33;100353.13;5087887;28;20051;-74
2021/04/20 11:10:51;;;;;;;10.05;9.15;;;;;;;43.77;6.50;100347.16;5086376;28;20059;-75
2021/04/20 11:13:36;;;;;;;9.82;8.88;;;;;;;43.96;6.73;100356.00;5091668;28;20052;-75
2021/04/20 11:16:06;;;;;;;9.77;8.88;;;;;;;44.69;6.36;100351.28;5094397;28;20532;-76
2021/04/20 11:18:36;;;;;;;10.10;9.20;;;;;;;45.33;6.34;100349.69;5095766;28;20083;-76
2021/04/20 11:21:08;;;;;;;8.57;7.80;;;;;;;45.52;5.74;100350.38;5096092;28;20047;-74
2021/04/20 11:23:45;;;;;;;8.50;7.70;;;;;;;46.63;4.72;100359.56;5095378;28;20059;-75
2021/04/20 11:26:16;;;;;;;8.75;7.95;;;;;;;46.47;4.75;100349.75;5095721;28;20051;-75
2021/04/20 11:28:51;;;;;;;8.73;7.88;;;;;;;46.42;5.18;100352.84;5095654;28;20404;-75
2021/04/20 11:31:28;;;;;;;8.27;7.47;;;;;;;46.49;5.13;100344.09;5083127;28;20053;-76
2021/04/20 11:34:02;;;;;;;9.57;8.68;;;;;;;47.03;4.74;100343.88;5076365;28;20462;-76
2021/04/20 11:36:32;;;;;;;9.32;8.52;;;;;;;45.86;4.80;100337.94;5080541;28;20053;-76
2021/04/20 11:39:02;;;;;;;8.27;7.53;;;;;;;46.32;4.59;100338.56;5082643;28;20481;-75